createdAt,value
2022-08-03T00:00:30.076Z,43.65
2022-08-03T00:01:30.898Z,43.60
2022-08-03T00:02:30.065Z,43.30
2022-08-03T00:03:30.814Z,43.66
2022-08-03T00:04:34.133Z,43.70
2022-08-03T00:05:30.040Z,49.30
2022-08-03T00:06:33.777Z,49.13
2022-08-03T00:07:31.990Z,49.08
2022-08-03T00:08:30.021Z,49.06
2022-08-03T00:09:35.842Z,43.42
2022-08-03T00:10:31.777Z,46.05
2022-08-03T00:11:30.776Z,49.38
2022-08-03T00:12:29.959Z,44.90
2022-08-03T00:13:29.975Z,49.02
2022-08-03T00:14:29.964Z,43.52
2022-08-03T00:15:29.943Z,51.65
2022-08-03T00:16:30.912Z,43.54
2022-08-03T00:17:29.954Z,43.16
2022-08-03T00:18:30.937Z,43.37
2022-08-03T00:19:29.904Z,49.07
2022-08-03T00:20:29.956Z,43.63
2022-08-03T00:22:01.810Z,50.66
2022-08-03T00:22:30.902Z,43.85
2022-08-03T00:23:51.120Z,49.10
2022-08-03T00:24:31.858Z,50.30
2022-08-03T00:25:29.941Z,44.14
2022-08-03T00:26:29.860Z,51.90
2022-08-03T00:27:29.840Z,44.16
2022-08-03T00:28:30.801Z,55.83
2022-08-03T00:29:31.432Z,49.94
2022-08-03T00:30:30.948Z,47.34
2022-08-03T00:31:44.993Z,43.58
2022-08-03T00:32:30.807Z,43.89
2022-08-03T00:33:29.984Z,50.21
2022-08-03T00:34:57.123Z,45.78
2022-08-03T00:35:49.259Z,56.30
2022-08-03T00:36:30.805Z,43.58
2022-08-03T00:37:40.755Z,52.71
2022-08-03T00:38:30.816Z,50.20
2022-08-03T00:39:29.757Z,54.26
2022-08-03T00:40:29.751Z,59.25
2022-08-03T00:41:29.807Z,51.57
2022-08-03T00:42:29.734Z,48.72
2022-08-03T00:43:29.747Z,55.89
2022-08-03T00:44:29.712Z,43.42
2022-08-03T00:45:29.694Z,43.62
2022-08-03T00:46:29.687Z,60.81
2022-08-03T00:47:29.698Z,48.96
2022-08-03T00:48:33.738Z,48.00
2022-08-03T00:49:29.729Z,58.32
2022-08-03T00:50:29.726Z,47.64
2022-08-03T00:51:29.646Z,50.66
2022-08-03T00:52:29.716Z,43.34
2022-08-03T00:53:29.657Z,54.63
2022-08-03T00:54:29.631Z,45.75
2022-08-03T00:55:29.640Z,45.35
2022-08-03T00:56:29.661Z,52.97
2022-08-03T00:57:29.640Z,56.67
2022-08-03T00:58:29.643Z,49.83
2022-08-03T00:59:29.761Z,48.59
2022-08-03T01:00:29.596Z,48.88
2022-08-03T01:01:32.574Z,49.54
2022-08-03T01:03:01.513Z,43.45
2022-08-03T01:04:01.876Z,44.68
2022-08-03T01:05:02.397Z,43.61
2022-08-03T01:06:01.464Z,43.12
2022-08-03T01:06:29.538Z,43.27
2022-08-03T01:08:01.457Z,44.34
2022-08-03T01:08:29.567Z,48.28
2022-08-03T01:10:01.452Z,51.26
2022-08-03T01:10:29.571Z,56.84
2022-08-03T01:11:29.513Z,49.57
2022-08-03T01:12:29.485Z,44.02
2022-08-03T01:14:03.760Z,52.58
2022-08-03T01:14:30.485Z,43.41
2022-08-03T01:15:29.495Z,52.57
2022-08-03T01:16:37.055Z,55.77
2022-08-03T01:17:30.487Z,49.57
2022-08-03T01:18:29.454Z,43.31
2022-08-03T01:19:29.443Z,43.37
2022-08-03T01:20:29.456Z,43.43
2022-08-03T01:21:29.472Z,47.73
2022-08-03T01:22:29.437Z,48.59
2022-08-03T01:23:29.462Z,43.59
2022-08-03T01:24:29.458Z,43.38
2022-08-03T01:25:29.414Z,43.32
2022-08-03T01:26:29.394Z,43.52
2022-08-03T01:27:29.423Z,43.29
2022-08-03T01:28:29.424Z,43.14
2022-08-03T01:29:29.385Z,43.59
2022-08-03T01:30:29.358Z,48.19
2022-08-03T01:31:29.359Z,54.23
2022-08-03T01:32:58.849Z,44.95
2022-08-03T01:33:30.342Z,43.32
2022-08-03T01:34:29.348Z,47.82
2022-08-03T01:35:29.364Z,45.99
2022-08-03T01:36:29.336Z,44.55
2022-08-03T01:37:29.370Z,43.52
2022-08-03T01:38:29.316Z,43.22
2022-08-03T01:39:30.127Z,43.57
2022-08-03T01:40:29.286Z,43.36
2022-08-03T01:41:29.447Z,43.29
2022-08-03T01:42:29.275Z,43.66
2022-08-03T01:44:28.204Z,43.37
2022-08-03T01:44:31.013Z,49.12
2022-08-03T02:03:27.845Z,43.40
2022-08-03T02:04:26.856Z,43.22
2022-08-03T02:05:28.019Z,43.25
2022-08-03T02:07:02.302Z,43.78
2022-08-03T02:07:28.987Z,49.15
2022-08-03T02:08:27.954Z,48.24
2022-08-03T02:09:27.969Z,47.77
2022-08-03T02:10:34.951Z,44.66
2022-08-03T02:11:28.975Z,44.10
2022-08-03T02:12:27.988Z,53.37
2022-08-03T02:13:27.912Z,43.89
2022-08-03T02:14:27.925Z,48.73
2022-08-03T02:15:59.889Z,48.60
2022-08-03T02:16:27.877Z,53.72
2022-08-03T02:17:39.632Z,49.55
2022-08-03T02:18:28.883Z,43.91
2022-08-03T02:19:31.392Z,48.77
2022-08-03T02:20:28.854Z,44.13
2022-08-03T02:21:57.233Z,51.84
2022-08-03T02:22:28.829Z,44.06
2022-08-03T02:23:28.467Z,49.58
2022-08-03T02:24:27.863Z,49.43
2022-08-03T02:25:27.833Z,54.85
2022-08-03T02:26:27.824Z,48.14
2022-08-03T02:27:27.775Z,51.20
2022-08-03T02:28:27.775Z,44.24
2022-08-03T02:29:40.380Z,49.84
2022-08-03T02:30:28.765Z,56.92
2022-08-03T02:31:27.764Z,43.57
2022-08-03T02:32:27.761Z,49.78
2022-08-03T02:33:27.752Z,43.68
2022-08-03T02:34:27.738Z,49.55
2022-08-03T02:35:27.753Z,48.22
2022-08-03T02:36:27.723Z,49.51
2022-08-03T02:37:27.724Z,51.09
2022-08-03T02:38:27.741Z,43.59
2022-08-03T02:39:27.734Z,47.70
2022-08-03T02:40:27.714Z,43.68
2022-08-03T02:41:27.725Z,43.56
2022-08-03T02:42:27.668Z,49.30
2022-08-03T02:43:27.680Z,48.60
2022-08-03T02:44:28.656Z,44.52
2022-08-03T02:45:27.636Z,60.28
2022-08-03T02:46:27.667Z,49.83
2022-08-03T02:47:27.676Z,56.48
2022-08-03T02:48:27.631Z,46.40
2022-08-03T02:49:40.761Z,54.22
2022-08-03T02:50:28.596Z,44.34
2022-08-03T02:51:27.615Z,44.34
2022-08-03T02:52:27.664Z,45.57
2022-08-03T02:53:27.615Z,56.48
2022-08-03T02:54:27.572Z,49.17
2022-08-03T02:55:27.571Z,47.87
2022-08-03T02:56:27.562Z,49.81
2022-08-03T02:57:27.563Z,54.18
2022-08-03T02:58:27.565Z,56.81
2022-08-03T02:59:27.577Z,48.01
2022-08-03T03:00:28.667Z,50.77
2022-08-03T03:01:27.610Z,51.39
2022-08-03T03:02:27.537Z,59.12
2022-08-03T03:03:28.280Z,44.65
2022-08-03T03:04:28.475Z,56.50
2022-08-03T03:05:52.409Z,48.94
2022-08-03T03:06:30.106Z,52.12
2022-08-03T03:07:28.780Z,46.73
2022-08-03T03:08:29.259Z,60.70
2022-08-03T03:09:40.045Z,50.01
2022-08-03T03:10:28.473Z,45.38
2022-08-03T03:11:27.473Z,58.97
2022-08-03T03:12:27.451Z,48.12
2022-08-03T03:13:27.443Z,48.67
2022-08-03T03:14:33.711Z,59.70
2022-08-03T03:15:28.447Z,55.20
2022-08-03T03:16:27.459Z,52.14
2022-08-03T03:17:27.407Z,55.89
2022-08-03T03:18:27.389Z,58.53
2022-08-03T03:19:27.403Z,45.40
2022-08-03T03:20:30.254Z,58.63
2022-08-03T03:21:27.398Z,57.13
2022-08-03T03:22:27.382Z,54.36
2022-08-03T03:23:27.349Z,52.49
2022-08-03T03:24:27.366Z,55.78
2022-08-03T03:25:27.353Z,54.05
2022-08-03T03:26:27.326Z,50.46
2022-08-03T03:27:27.351Z,63.04
2022-08-03T03:28:27.349Z,63.73
2022-08-03T03:29:27.307Z,53.32
2022-08-03T03:30:27.320Z,62.88
2022-08-03T03:31:27.324Z,57.84
2022-08-03T03:32:27.292Z,65.02
2022-08-03T03:33:28.666Z,56.96
2022-08-03T03:34:28.285Z,63.08
2022-08-03T03:35:27.271Z,61.28
2022-08-03T03:36:27.273Z,64.23
2022-08-03T03:37:27.297Z,58.79
2022-08-03T03:38:27.246Z,64.53
2022-08-03T03:39:27.250Z,65.31
2022-08-03T03:40:27.236Z,55.01
2022-08-03T03:41:27.215Z,62.20
2022-08-03T03:42:28.237Z,58.63
2022-08-03T03:43:27.208Z,63.33
2022-08-03T03:44:27.233Z,60.80
2022-08-03T03:45:27.201Z,61.84
2022-08-03T04:02:35.853Z,60.17
2022-08-03T04:03:36.971Z,68.60
2022-08-03T04:04:36.972Z,58.69
2022-08-03T04:05:37.065Z,61.63
2022-08-03T04:06:36.983Z,59.93
2022-08-03T04:07:36.945Z,65.41
2022-08-03T04:08:36.961Z,56.10
2022-08-03T04:09:36.929Z,66.59
2022-08-03T04:10:36.926Z,61.88
2022-08-03T04:11:36.930Z,55.69
2022-08-03T04:12:36.912Z,66.12
2022-08-03T04:13:36.909Z,56.40
2022-08-03T04:14:36.908Z,61.21
2022-08-03T04:15:36.975Z,57.45
2022-08-03T04:16:39.803Z,58.78
2022-08-03T04:17:37.867Z,66.36
2022-08-03T04:18:37.579Z,58.69
2022-08-03T04:20:08.768Z,64.44
2022-08-03T04:20:36.839Z,59.98
2022-08-03T04:22:08.783Z,61.19
2022-08-03T04:22:36.821Z,69.88
2022-08-03T04:24:08.857Z,68.03
2022-08-03T04:24:36.896Z,55.22
2022-08-03T04:26:08.736Z,61.88
2022-08-03T04:27:08.719Z,57.76
2022-08-03T04:28:29.762Z,65.93
2022-08-03T04:28:37.788Z,67.77
2022-08-03T04:29:38.713Z,66.69
2022-08-03T04:30:38.652Z,63.41
2022-08-03T04:31:36.772Z,68.09
2022-08-03T04:32:36.806Z,65.59
2022-08-03T04:33:36.777Z,63.79
2022-08-03T04:34:36.746Z,62.38
2022-08-03T04:36:01.258Z,63.73
2022-08-03T04:36:37.733Z,69.33
2022-08-03T04:37:36.722Z,69.53
2022-08-03T04:38:36.736Z,63.11
2022-08-03T04:39:36.719Z,66.19
2022-08-03T04:40:36.706Z,65.47
2022-08-03T04:42:07.103Z,63.13
2022-08-03T04:42:37.695Z,60.68
2022-08-03T04:43:36.702Z,68.73
2022-08-03T04:44:36.686Z,67.23
2022-08-03T04:45:36.654Z,67.81
2022-08-03T04:46:36.644Z,61.67
2022-08-03T04:47:36.638Z,62.17
2022-08-03T04:48:36.631Z,63.38
2022-08-03T04:49:36.731Z,64.83
2022-08-03T04:50:36.650Z,66.95
2022-08-03T04:51:36.677Z,66.33
2022-08-03T04:52:36.624Z,51.10
2022-08-03T04:53:36.621Z,65.48
2022-08-03T04:54:36.611Z,62.99
2022-08-03T04:55:36.636Z,66.51
2022-08-03T04:56:36.587Z,65.61
2022-08-03T04:57:36.569Z,66.84
2022-08-03T04:58:36.556Z,64.31
2022-08-03T04:59:36.559Z,65.20
2022-08-03T05:00:36.589Z,64.32
2022-08-03T05:01:36.623Z,67.46
2022-08-03T05:02:36.541Z,65.79
2022-08-03T05:03:36.523Z,66.98
2022-08-03T05:04:36.505Z,61.98
2022-08-03T05:05:50.155Z,64.68
2022-08-03T05:06:41.408Z,62.72
2022-08-03T05:07:37.486Z,68.64
2022-08-03T05:08:46.087Z,59.67
2022-08-03T05:09:49.858Z,68.14
2022-08-03T05:10:37.483Z,58.55
2022-08-03T05:11:36.487Z,67.62
2022-08-03T05:12:36.459Z,65.55
2022-08-03T05:13:36.469Z,61.03
2022-08-03T05:14:36.442Z,66.50
2022-08-03T05:15:36.424Z,59.54
2022-08-03T05:16:38.202Z,62.65
2022-08-03T05:17:36.578Z,66.59
2022-08-03T05:18:36.438Z,65.71
2022-08-03T05:19:36.452Z,63.91
2022-08-03T05:20:36.389Z,61.65
2022-08-03T05:21:51.914Z,69.26
2022-08-03T05:22:37.383Z,65.54
2022-08-03T05:23:36.367Z,64.02
2022-08-03T05:24:36.434Z,68.11
2022-08-03T05:25:36.421Z,65.37
2022-08-03T05:26:36.417Z,65.96
2022-08-03T05:27:36.335Z,60.84
2022-08-03T05:28:36.340Z,68.08
2022-08-03T05:29:36.318Z,68.39
2022-08-03T05:30:37.311Z,64.81
2022-08-03T05:31:36.352Z,66.67
2022-08-03T05:32:36.312Z,67.97
2022-08-03T05:33:36.292Z,60.50
2022-08-03T05:34:36.321Z,66.50
2022-08-03T05:35:56.156Z,67.12
2022-08-03T05:36:37.290Z,58.33
2022-08-03T05:37:36.296Z,60.90
2022-08-03T05:38:36.252Z,66.74
2022-08-03T05:39:36.270Z,66.46
2022-08-03T05:40:36.293Z,65.52
2022-08-03T05:41:37.382Z,67.66
2022-08-03T05:42:36.253Z,68.66
2022-08-03T05:43:36.242Z,64.19
2022-08-03T05:44:36.245Z,60.73
2022-08-03T05:45:36.214Z,65.17
2022-08-03T05:46:36.206Z,69.12
2022-08-03T05:47:36.222Z,68.07
2022-08-03T05:48:36.193Z,60.90
2022-08-03T05:49:36.212Z,63.91
2022-08-03T05:50:38.774Z,60.70
2022-08-03T05:51:38.205Z,64.38
2022-08-03T05:52:36.162Z,62.65
2022-08-03T05:53:36.182Z,67.87
2022-08-03T05:54:56.711Z,63.60
2022-08-03T05:55:37.140Z,63.08
2022-08-03T05:56:36.149Z,65.97
2022-08-03T05:57:36.125Z,64.25
2022-08-03T05:58:36.795Z,53.78
2022-08-03T05:59:38.525Z,65.59
2022-08-03T06:00:37.102Z,66.09
2022-08-03T06:01:36.265Z,64.38
2022-08-03T06:02:36.086Z,62.62
2022-08-03T06:03:36.248Z,66.71
2022-08-03T06:04:36.078Z,65.40
2022-08-03T06:05:36.076Z,62.56
2022-08-03T06:06:37.114Z,66.84
2022-08-03T06:07:36.051Z,62.70
2022-08-03T06:08:36.072Z,68.04
2022-08-03T06:10:36.060Z,64.20
2022-08-03T06:10:38.360Z,64.43
2022-08-03T06:11:36.017Z,66.81
2022-08-03T06:12:36.079Z,68.94
2022-08-03T06:13:36.057Z,65.60
2022-08-03T06:14:36.034Z,63.75
2022-08-03T06:15:36.037Z,67.42
2022-08-03T06:16:36.033Z,59.77
2022-08-03T06:17:37.487Z,65.00
2022-08-03T06:18:35.992Z,56.45
2022-08-03T06:19:36.014Z,63.02
2022-08-03T06:20:35.974Z,63.81
2022-08-03T06:21:35.982Z,61.70
2022-08-03T06:22:35.980Z,63.25
2022-08-03T06:23:54.953Z,59.88
2022-08-03T06:24:36.958Z,63.45
2022-08-03T06:25:35.928Z,66.44
2022-08-03T06:26:35.914Z,52.76
2022-08-03T06:27:37.652Z,59.46
2022-08-03T06:28:52.690Z,69.25
2022-08-03T06:29:37.919Z,62.31
2022-08-03T06:30:35.918Z,64.78
2022-08-03T06:31:35.900Z,64.80
2022-08-03T06:32:35.887Z,67.90
2022-08-03T06:34:29.099Z,62.09
2022-08-03T06:34:36.943Z,58.86
2022-08-03T06:35:35.881Z,66.62
2022-08-03T06:36:35.889Z,61.75
2022-08-03T06:37:35.843Z,66.33
2022-08-03T06:38:35.833Z,66.65
2022-08-03T06:39:35.832Z,66.24
2022-08-03T06:40:35.829Z,65.94
2022-08-03T06:41:37.433Z,60.61
2022-08-03T06:42:35.815Z,60.87
2022-08-03T06:43:36.058Z,67.57
2022-08-03T06:46:22.386Z,63.28
2022-08-03T06:47:23.507Z,63.44
2022-08-03T06:48:23.496Z,66.69
2022-08-03T06:49:23.599Z,66.10
2022-08-03T06:50:26.346Z,68.20
2022-08-03T06:52:04.117Z,63.93
2022-08-03T06:52:38.127Z,64.27
2022-08-03T06:53:24.446Z,65.93
2022-08-03T06:54:23.441Z,65.01
2022-08-03T06:55:23.450Z,63.28
2022-08-03T06:56:23.436Z,63.01
2022-08-03T06:57:23.509Z,65.31
2022-08-03T06:58:23.424Z,63.67
2022-08-03T07:00:06.451Z,67.18
2022-08-03T07:00:24.461Z,60.96
2022-08-03T07:01:23.424Z,62.23
2022-08-03T07:02:23.410Z,64.68
2022-08-03T07:03:23.451Z,58.57
2022-08-03T07:04:23.396Z,66.81
2022-08-03T07:05:23.541Z,65.37
2022-08-03T07:06:23.374Z,48.93
2022-08-03T07:07:23.358Z,63.73
2022-08-03T07:08:33.512Z,60.46
2022-08-03T07:09:24.425Z,61.65
2022-08-03T07:10:23.586Z,65.18
2022-08-03T07:11:23.404Z,62.09
2022-08-03T07:12:23.342Z,61.28
2022-08-03T07:13:23.313Z,63.00
2022-08-03T07:14:23.349Z,61.17
2022-08-03T07:15:38.377Z,60.38
2022-08-03T07:16:24.320Z,62.03
2022-08-03T07:17:23.294Z,61.10
2022-08-03T07:18:25.649Z,67.38
2022-08-03T07:19:24.299Z,65.78
2022-08-03T07:20:30.977Z,68.00
2022-08-03T07:21:25.284Z,64.45
2022-08-03T07:22:23.359Z,63.13
2022-08-03T07:23:23.275Z,62.35
2022-08-03T07:24:23.274Z,58.25
2022-08-03T07:25:23.245Z,54.80
2022-08-03T07:26:23.236Z,61.55
2022-08-03T07:27:23.269Z,59.93
2022-08-03T07:28:23.232Z,64.80
2022-08-03T07:29:23.216Z,62.84
2022-08-03T07:30:23.363Z,63.19
2022-08-03T07:31:23.222Z,63.60
2022-08-03T07:32:23.219Z,63.49
2022-08-03T07:33:23.202Z,67.17
2022-08-03T07:34:23.169Z,60.03
2022-08-03T07:35:24.969Z,62.38
2022-08-03T07:36:23.174Z,58.36
2022-08-03T07:37:23.149Z,63.27
2022-08-03T07:38:23.219Z,66.26
2022-08-03T07:39:23.138Z,61.97
2022-08-03T07:40:23.150Z,67.84
2022-08-03T07:41:23.120Z,64.30
2022-08-03T07:42:23.121Z,63.50
2022-08-03T07:43:23.173Z,62.89
2022-08-03T07:44:23.161Z,64.33
2022-08-03T07:45:24.182Z,66.78
2022-08-03T07:46:23.206Z,61.72
2022-08-03T07:47:23.086Z,62.13
2022-08-03T07:48:23.100Z,59.26
2022-08-03T07:49:23.161Z,67.05
2022-08-03T07:50:23.059Z,66.65
2022-08-03T07:51:23.064Z,61.58
2022-08-03T07:52:23.038Z,59.80
2022-08-03T07:53:24.079Z,62.37
2022-08-03T07:54:23.069Z,63.54
2022-08-03T07:55:23.026Z,58.36
2022-08-03T07:56:23.039Z,59.85
2022-08-03T07:57:23.054Z,64.57
2022-08-03T07:58:24.305Z,64.96
2022-08-03T07:59:23.996Z,64.40
2022-08-03T08:00:23.054Z,65.83
2022-08-03T08:01:23.070Z,61.15
2022-08-03T08:02:23.074Z,62.69
2022-08-03T08:03:22.968Z,64.80
2022-08-03T08:04:23.100Z,54.76
2022-08-03T08:05:22.954Z,62.49
2022-08-03T08:06:22.949Z,64.36
2022-08-03T08:07:22.963Z,59.66
2022-08-03T08:08:22.932Z,63.85
2022-08-03T08:09:22.951Z,63.29
2022-08-03T08:10:22.991Z,63.97
2022-08-03T08:11:22.938Z,60.91
2022-08-03T08:12:22.911Z,59.95
2022-08-03T08:13:22.940Z,54.14
2022-08-03T08:14:23.894Z,65.38
2022-08-03T08:15:22.908Z,63.97
2022-08-03T08:16:54.831Z,56.34
2022-08-03T08:17:22.902Z,63.96
2022-08-03T08:18:22.926Z,65.60
2022-08-03T08:19:22.884Z,61.59
2022-08-03T08:20:27.804Z,56.41
2022-08-03T08:21:23.839Z,61.66
2022-08-03T08:22:30.561Z,62.00
2022-08-03T08:23:41.921Z,64.17
2022-08-03T08:24:24.879Z,58.88
2022-08-03T08:25:22.837Z,60.52
2022-08-03T08:26:23.575Z,59.43
2022-08-03T08:27:22.829Z,61.60
2022-08-03T08:28:30.168Z,63.17
2022-08-03T08:29:24.817Z,60.98
2022-08-03T08:30:22.793Z,61.53
2022-08-03T08:31:22.787Z,65.84
2022-08-03T08:32:24.594Z,63.95
2022-08-03T08:33:23.963Z,58.55
2022-08-03T08:34:22.861Z,56.41
2022-08-03T08:35:22.764Z,58.74
2022-08-03T08:36:22.744Z,60.80
2022-08-03T08:37:22.744Z,62.83
2022-08-03T08:38:22.737Z,61.98
2022-08-03T08:39:22.761Z,64.83
2022-08-03T08:40:22.748Z,62.70
2022-08-03T08:41:23.586Z,64.08
2022-08-03T08:42:23.730Z,60.29
2022-08-03T08:43:22.704Z,61.63
2022-08-03T08:44:22.779Z,62.80
2022-08-03T08:45:22.828Z,55.42
2022-08-03T08:46:23.799Z,56.69
2022-08-03T08:47:22.670Z,60.49
2022-08-03T08:48:22.675Z,63.11
2022-08-03T08:49:22.685Z,64.57
2022-08-03T08:50:27.856Z,62.89
2022-08-03T08:51:23.676Z,62.38
2022-08-03T08:52:25.193Z,64.39
2022-08-03T08:53:27.313Z,57.83
2022-08-03T08:54:24.641Z,49.08
2022-08-03T08:55:22.643Z,54.15
2022-08-03T08:56:22.645Z,63.35
2022-08-03T08:57:41.839Z,62.94
2022-08-03T08:58:24.758Z,63.80
2022-08-03T08:59:22.600Z,62.64
2022-08-03T09:00:22.705Z,56.32
2022-08-03T09:01:22.785Z,64.50
2022-08-03T09:02:22.584Z,60.67
2022-08-03T09:03:29.538Z,61.21
2022-08-03T09:04:23.568Z,62.37
2022-08-03T09:05:36.251Z,63.08
2022-08-03T09:06:24.594Z,56.65
2022-08-03T09:07:22.570Z,59.29
2022-08-03T09:08:22.545Z,61.93
2022-08-03T09:10:01.331Z,64.49
2022-08-03T09:10:23.562Z,60.40
2022-08-03T09:11:22.535Z,60.72
2022-08-03T09:12:39.170Z,63.72
2022-08-03T09:13:24.548Z,65.00
2022-08-03T09:14:37.213Z,60.31
2022-08-03T09:15:23.503Z,67.11
2022-08-03T09:16:23.225Z,63.62
2022-08-03T09:17:22.728Z,62.78
2022-08-03T09:18:22.521Z,57.34
2022-08-03T09:19:23.210Z,63.80
2022-08-03T09:20:23.102Z,61.33
2022-08-03T09:21:35.993Z,67.25
2022-08-03T09:22:25.125Z,53.69
2022-08-03T09:23:58.948Z,60.02
2022-08-03T09:24:40.633Z,64.49
2022-08-03T09:25:25.183Z,62.58
2022-08-03T09:26:24.104Z,62.76
2022-08-03T09:27:23.112Z,60.02
2022-08-03T09:29:00.545Z,57.68
2022-08-03T09:29:24.110Z,64.04
2022-08-03T09:30:34.177Z,63.03
2022-08-03T09:31:23.396Z,51.83
2022-08-03T09:32:22.428Z,59.89
2022-08-03T09:33:22.388Z,64.65
2022-08-03T09:34:22.404Z,65.76
2022-08-03T09:35:33.094Z,62.15
2022-08-03T09:36:25.114Z,61.10
2022-08-03T09:37:23.223Z,59.91
2022-08-03T09:38:23.367Z,60.89
2022-08-03T09:39:41.659Z,62.04
2022-08-03T09:40:23.354Z,65.77
2022-08-03T09:41:22.349Z,61.37
2022-08-03T09:42:23.885Z,56.32
2022-08-03T09:43:22.334Z,55.17
2022-08-03T09:44:25.834Z,64.12
2022-08-03T09:45:22.322Z,63.23
2022-08-03T09:46:23.116Z,60.07
2022-08-03T09:47:26.705Z,54.57
2022-08-03T09:48:24.329Z,63.81
2022-08-03T09:49:22.380Z,60.42
2022-08-03T09:50:22.310Z,59.65
2022-08-03T09:52:27.295Z,58.11
2022-08-03T09:52:38.160Z,58.36
2022-08-03T09:53:23.296Z,63.89
2022-08-03T09:54:22.292Z,63.31
2022-08-03T09:56:05.220Z,58.67
2022-08-03T09:56:33.400Z,65.74
2022-08-03T09:57:23.255Z,61.71
2022-08-03T09:58:22.267Z,66.57
2022-08-03T09:59:22.255Z,61.93
2022-08-03T10:00:22.287Z,61.67
2022-08-03T10:01:24.142Z,62.50
2022-08-03T10:02:22.261Z,57.76
2022-08-03T10:03:22.244Z,57.42
2022-08-03T10:04:22.211Z,66.79
2022-08-03T10:05:22.231Z,58.86
2022-08-03T10:06:22.206Z,58.70
2022-08-03T10:07:22.201Z,59.03
2022-08-03T10:08:22.185Z,63.24
2022-08-03T10:09:22.176Z,66.56
2022-08-03T10:10:30.227Z,61.36
2022-08-03T10:11:23.214Z,60.34
2022-08-03T10:12:22.156Z,64.64
2022-08-03T10:13:22.142Z,62.21
2022-08-03T10:14:22.188Z,64.68
2022-08-03T10:16:21.351Z,63.66
2022-08-03T10:16:25.651Z,63.13
2022-08-03T10:17:23.130Z,56.53
2022-08-03T10:18:22.156Z,64.25
2022-08-03T10:19:22.162Z,58.85
2022-08-03T10:20:22.151Z,63.20
2022-08-03T10:21:22.105Z,64.62
2022-08-03T10:22:22.170Z,59.56
2022-08-03T10:23:22.097Z,65.99
2022-08-03T10:24:22.108Z,64.43
2022-08-03T10:25:22.112Z,61.51
2022-08-03T10:26:23.073Z,57.46
2022-08-03T10:27:22.087Z,66.22
2022-08-03T10:28:22.125Z,55.64
2022-08-03T10:29:22.065Z,59.22
2022-08-03T10:30:22.050Z,63.97
2022-08-03T10:31:22.049Z,59.17
2022-08-03T10:32:22.015Z,63.40
2022-08-03T10:33:50.131Z,61.63
2022-08-03T10:34:23.013Z,65.67
2022-08-03T10:35:22.034Z,63.85
2022-08-03T10:36:22.022Z,59.43
2022-08-03T10:37:22.027Z,57.76
2022-08-03T10:38:21.984Z,55.81
2022-08-03T10:39:22.007Z,63.51
2022-08-03T10:40:39.557Z,57.91
2022-08-03T10:41:23.972Z,63.80
2022-08-03T10:42:21.963Z,61.77
2022-08-03T10:43:22.641Z,59.41
2022-08-03T10:44:21.969Z,60.54
2022-08-03T10:45:21.949Z,61.11
2022-08-03T10:46:21.963Z,58.68
2022-08-03T10:47:21.946Z,57.73
2022-08-03T10:48:22.639Z,66.72
2022-08-03T10:49:32.849Z,65.54
2022-08-03T10:50:22.899Z,63.78
2022-08-03T10:51:21.924Z,61.97
2022-08-03T10:52:31.935Z,58.93
2022-08-03T10:53:22.882Z,56.20
2022-08-03T10:54:21.905Z,62.38
2022-08-03T10:55:21.869Z,62.94
2022-08-03T10:56:35.661Z,58.70
2022-08-03T10:57:22.952Z,63.76
2022-08-03T10:58:30.586Z,61.80
2022-08-03T10:59:27.919Z,60.37
2022-08-03T11:00:22.971Z,52.83
2022-08-03T11:01:21.937Z,64.58
2022-08-03T11:02:21.870Z,57.96
2022-08-03T11:03:22.646Z,62.77
2022-08-03T11:04:21.804Z,63.41
2022-08-03T11:05:21.839Z,55.79
2022-08-03T11:06:21.806Z,64.58
2022-08-03T11:07:22.246Z,63.23
2022-08-03T11:08:21.784Z,63.58
2022-08-03T11:09:21.769Z,61.46
2022-08-03T11:10:21.858Z,67.88
2022-08-03T11:11:21.774Z,64.76
2022-08-03T11:12:21.795Z,59.55
2022-08-03T11:13:22.792Z,63.26
2022-08-03T11:14:21.752Z,66.30
2022-08-03T11:15:21.806Z,64.26
2022-08-03T11:16:22.270Z,57.43
2022-08-03T11:17:23.295Z,56.15
2022-08-03T11:18:21.763Z,60.20
2022-08-03T11:19:23.638Z,66.02
2022-08-03T11:20:21.706Z,60.45
2022-08-03T11:21:21.705Z,62.96
2022-08-03T11:22:22.656Z,57.99
2022-08-03T11:24:04.810Z,64.85
2022-08-03T11:24:22.731Z,54.98
2022-08-03T11:25:54.115Z,59.36
2022-08-03T11:26:22.666Z,57.09
2022-08-03T11:27:21.916Z,63.10
2022-08-03T11:28:21.723Z,61.89
2022-08-03T11:29:21.659Z,64.71
2022-08-03T11:30:21.667Z,59.18
2022-08-03T11:31:48.077Z,64.17
2022-08-03T11:32:23.655Z,61.53
2022-08-03T11:33:21.617Z,59.96
2022-08-03T11:34:21.669Z,55.23
2022-08-03T11:35:21.607Z,58.55
2022-08-03T11:36:32.570Z,58.87
2022-08-03T11:37:23.124Z,62.17
2022-08-03T11:38:21.583Z,64.83
2022-08-03T11:39:21.641Z,62.57
2022-08-03T11:40:21.627Z,64.26
2022-08-03T11:41:21.592Z,65.82
2022-08-03T11:42:21.567Z,61.46
2022-08-03T11:43:25.726Z,61.27
2022-08-03T11:44:21.616Z,56.91
2022-08-03T11:45:21.565Z,67.74
2022-08-03T11:46:29.496Z,63.69
2022-08-03T11:47:22.867Z,65.01
2022-08-03T11:48:21.570Z,68.98
2022-08-03T11:49:22.645Z,63.96
2022-08-03T11:50:22.524Z,61.08
2022-08-03T11:51:22.283Z,67.23
2022-08-03T11:52:27.010Z,54.18
2022-08-03T11:53:22.506Z,64.82
2022-08-03T11:54:21.490Z,59.60
2022-08-03T11:55:21.503Z,49.66
2022-08-03T11:56:21.457Z,64.87
2022-08-03T11:57:21.470Z,63.76
2022-08-03T11:59:01.152Z,51.38
2022-08-03T11:59:22.751Z,50.38
2022-08-03T12:00:22.497Z,63.99
2022-08-03T12:01:23.203Z,58.39
2022-08-03T12:02:22.642Z,67.18
2022-08-03T12:03:21.489Z,67.40
2022-08-03T12:04:21.418Z,58.05
2022-08-03T12:05:21.410Z,62.35
2022-08-03T12:06:22.170Z,61.66
2022-08-03T12:08:02.255Z,61.14
2022-08-03T12:08:22.395Z,59.67
2022-08-03T12:09:21.471Z,65.66
2022-08-03T12:10:21.412Z,52.41
2022-08-03T12:11:22.430Z,67.68
2022-08-03T12:12:21.362Z,67.70
2022-08-03T12:14:36.707Z,61.88
2022-08-03T12:14:48.940Z,64.07
2022-08-03T12:15:22.353Z,55.87
2022-08-03T12:16:21.501Z,67.40
2022-08-03T12:17:21.661Z,62.94
2022-08-03T12:18:21.341Z,61.46
2022-08-03T12:19:21.348Z,65.99
2022-08-03T12:20:21.324Z,63.84
2022-08-03T12:21:22.299Z,64.08
2022-08-03T12:22:21.316Z,62.48
2022-08-03T12:23:21.319Z,55.19
2022-08-03T12:24:21.305Z,62.46
2022-08-03T12:25:38.644Z,65.10
2022-08-03T12:26:22.265Z,67.08
2022-08-03T12:27:21.330Z,65.41
2022-08-03T12:28:36.038Z,60.03
2022-08-03T12:29:22.764Z,60.16
2022-08-03T12:30:24.149Z,63.62
2022-08-03T12:31:26.696Z,59.22
2022-08-03T12:32:22.354Z,61.91
2022-08-03T12:33:21.251Z,61.58
2022-08-03T12:34:21.297Z,61.83
2022-08-03T12:35:21.225Z,58.80
2022-08-03T12:36:21.203Z,61.71
2022-08-03T12:37:22.607Z,55.68
2022-08-03T12:38:21.218Z,67.02
2022-08-03T12:39:21.229Z,64.93
2022-08-03T12:40:23.111Z,61.48
2022-08-03T12:41:22.186Z,64.64
2022-08-03T12:42:21.200Z,64.89
2022-08-03T12:43:21.160Z,66.03
2022-08-03T12:44:21.163Z,62.22
2022-08-03T12:45:21.178Z,60.12
2022-08-03T12:46:21.179Z,67.29
2022-08-03T12:47:21.365Z,60.84
2022-08-03T12:48:21.136Z,68.94
2022-08-03T12:49:21.191Z,65.37
2022-08-03T12:50:21.127Z,62.96
2022-08-03T12:51:21.094Z,61.94
2022-08-03T12:52:21.098Z,54.54
2022-08-03T12:53:21.684Z,66.50
2022-08-03T12:54:24.852Z,64.98
2022-08-03T12:55:21.088Z,63.34
2022-08-03T12:56:21.114Z,64.59
2022-08-03T12:57:21.533Z,59.99
2022-08-03T12:58:21.683Z,61.83
2022-08-03T12:59:22.245Z,60.73
2022-08-03T13:00:28.699Z,61.41
2022-08-03T13:01:22.135Z,63.58
2022-08-03T13:02:21.124Z,66.28
2022-08-03T13:03:41.994Z,63.41
2022-08-03T13:04:23.091Z,64.21
2022-08-03T13:05:21.025Z,64.68
2022-08-03T13:06:22.048Z,62.97
2022-08-03T13:07:36.823Z,59.43
2022-08-03T13:08:21.016Z,64.87
2022-08-03T13:09:20.990Z,62.71
2022-08-03T13:10:26.617Z,61.53
2022-08-03T13:11:22.082Z,62.55
2022-08-03T13:12:21.147Z,62.90
2022-08-03T13:13:25.906Z,62.07
2022-08-03T13:14:23.484Z,63.30
2022-08-03T13:15:20.971Z,62.71
2022-08-03T13:16:20.961Z,62.74
2022-08-03T13:17:21.380Z,62.53
2022-08-03T13:18:20.983Z,58.30
2022-08-03T13:19:20.949Z,62.02
2022-08-03T13:20:20.982Z,67.81
2022-08-03T13:21:20.924Z,63.10
2022-08-03T13:22:20.926Z,65.86
2022-08-03T13:23:22.440Z,63.24
2022-08-03T13:24:20.901Z,62.18
2022-08-03T13:25:21.010Z,60.45
2022-08-03T13:26:20.945Z,59.79
2022-08-03T13:28:01.011Z,64.55
2022-08-03T13:28:21.936Z,63.68